Weather at Aasiaat Airport

Public forecast

Using degrees Celsius for public forecast. Weather courtesy of forecast.io.

Closest aviation weather report (METAR) to Aasiaat Airport

Report is more than 6 hours old.

Closest report is Ilulissat Airport, 48.6 nm (90.0 km) NE.

2022/11/14 13:50 (retrieved 2 years ago)

BGJN 141350Z 04003KT 9999 BKN100 M03/M05 Q0995

Closest aviation forecast (TAF) to Aasiaat Airport

Forecast is more than 12 hours old.

Closest forecast is Kangerlussuaq Airport, 112.9 nm (209.1 km) SSE.

2023/02/22 19:30 Ammendment (retrieved 1 year ago)

TAF AMD TAF AMD BGSF 221927Z 2219/2224 VRB05KT 9999 SCT030 BKN045 TEMPO 2219/2221 SCT045 BECMG 2221/2224 05008KT FEW045